sensor_id;sensor_type;location;lat;lon;timestamp;P1;durP1;ratioP1;P2;durP2;ratioP2
70253;SDS011;57649;42.968;1.608;2023-04-24T00:01:10;4.50;;;1.88;;
70253;SDS011;57649;42.968;1.608;2023-04-24T00:03:36;12.02;;;2.40;;
70253;SDS011;57649;42.968;1.608;2023-04-24T00:06:01;2.67;;;2.00;;
70253;SDS011;57649;42.968;1.608;2023-04-24T00:08:27;3.40;;;1.88;;
70253;SDS011;57649;42.968;1.608;2023-04-24T00:10:53;4.82;;;2.30;;
70253;SDS011;57649;42.968;1.608;2023-04-24T00:13:18;5.10;;;2.95;;
70253;SDS011;57649;42.968;1.608;2023-04-24T00:15:43;3.47;;;2.90;;
70253;SDS011;57649;42.968;1.608;2023-04-24T00:18:09;3.78;;;2.70;;
70253;SDS011;57649;42.968;1.608;2023-04-24T00:20:34;3.30;;;2.42;;
70253;SDS011;57649;42.968;1.608;2023-04-24T00:23:02;4.32;;;2.97;;
70253;SDS011;57649;42.968;1.608;2023-04-24T00:25:28;3.90;;;2.85;;
70253;SDS011;57649;42.968;1.608;2023-04-24T00:27:53;4.28;;;2.95;;
70253;SDS011;57649;42.968;1.608;2023-04-24T00:30:19;7.85;;;2.88;;
70253;SDS011;57649;42.968;1.608;2023-04-24T00:32:44;4.55;;;2.70;;
70253;SDS011;57649;42.968;1.608;2023-04-24T00:35:10;5.53;;;2.85;;
70253;SDS011;57649;42.968;1.608;2023-04-24T00:37:35;4.47;;;2.83;;
70253;SDS011;57649;42.968;1.608;2023-04-24T00:40:01;3.20;;;2.20;;
70253;SDS011;57649;42.968;1.608;2023-04-24T00:42:26;4.85;;;2.70;;
70253;SDS011;57649;42.968;1.608;2023-04-24T00:44:52;6.30;;;2.80;;
70253;SDS011;57649;42.968;1.608;2023-04-24T00:47:18;4.13;;;2.50;;
70253;SDS011;57649;42.968;1.608;2023-04-24T00:49:44;4.53;;;2.78;;
70253;SDS011;57649;42.968;1.608;2023-04-24T00:52:09;4.72;;;3.10;;
70253;SDS011;57649;42.968;1.608;2023-04-24T00:54:35;4.53;;;2.67;;
70253;SDS011;57649;42.968;1.608;2023-04-24T00:57:04;7.18;;;2.80;;
70253;SDS011;57649;42.968;1.608;2023-04-24T00:59:30;4.35;;;2.60;;
70253;SDS011;57649;42.968;1.608;2023-04-24T01:01:56;3.80;;;2.13;;
70253;SDS011;57649;42.968;1.608;2023-04-24T01:04:23;5.22;;;2.50;;
70253;SDS011;57649;42.968;1.608;2023-04-24T01:06:49;4.35;;;2.42;;
70253;SDS011;57649;42.968;1.608;2023-04-24T01:09:15;3.38;;;2.53;;
70253;SDS011;57649;42.968;1.608;2023-04-24T01:11:42;4.85;;;2.58;;
70253;SDS011;57649;42.968;1.608;2023-04-24T01:14:08;5.55;;;2.53;;
70253;SDS011;57649;42.968;1.608;2023-04-24T01:16:34;4.28;;;2.72;;
70253;SDS011;57649;42.968;1.608;2023-04-24T01:19:00;6.57;;;2.88;;
70253;SDS011;57649;42.968;1.608;2023-04-24T01:21:26;3.55;;;2.28;;
70253;SDS011;57649;42.968;1.608;2023-04-24T01:23:55;4.13;;;2.95;;
70253;SDS011;57649;42.968;1.608;2023-04-24T01:26:21;4.43;;;2.38;;
70253;SDS011;57649;42.968;1.608;2023-04-24T01:28:47;5.40;;;2.50;;
70253;SDS011;57649;42.968;1.608;2023-04-24T01:31:13;4.97;;;2.22;;
70253;SDS011;57649;42.968;1.608;2023-04-24T01:33:41;3.58;;;2.35;;
70253;SDS011;57649;42.968;1.608;2023-04-24T01:36:08;4.05;;;2.53;;
70253;SDS011;57649;42.968;1.608;2023-04-24T01:38:35;4.53;;;2.13;;
70253;SDS011;57649;42.968;1.608;2023-04-24T01:41:00;5.00;;;3.42;;
70253;SDS011;57649;42.968;1.608;2023-04-24T01:43:26;5.40;;;2.10;;
70253;SDS011;57649;42.968;1.608;2023-04-24T01:45:51;4.40;;;2.50;;
70253;SDS011;57649;42.968;1.608;2023-04-24T01:48:17;4.45;;;2.25;;
70253;SDS011;57649;42.968;1.608;2023-04-24T01:50:42;5.75;;;2.35;;
70253;SDS011;57649;42.968;1.608;2023-04-24T01:53:08;4.25;;;2.08;;
70253;SDS011;57649;42.968;1.608;2023-04-24T01:55:33;4.88;;;1.67;;
70253;SDS011;57649;42.968;1.608;2023-04-24T01:57:59;4.32;;;2.15;;
70253;SDS011;57649;42.968;1.608;2023-04-24T02:00:24;5.03;;;2.40;;
70253;SDS011;57649;42.968;1.608;2023-04-24T02:02:50;4.25;;;2.03;;
70253;SDS011;57649;42.968;1.608;2023-04-24T02:05:15;3.80;;;1.80;;
70253;SDS011;57649;42.968;1.608;2023-04-24T02:07:41;3.22;;;2.17;;
70253;SDS011;57649;42.968;1.608;2023-04-24T02:10:06;3.35;;;2.30;;
70253;SDS011;57649;42.968;1.608;2023-04-24T02:12:32;3.58;;;1.90;;
70253;SDS011;57649;42.968;1.608;2023-04-24T02:14:57;5.03;;;2.17;;
70253;SDS011;57649;42.968;1.608;2023-04-24T02:17:23;8.45;;;1.95;;
70253;SDS011;57649;42.968;1.608;2023-04-24T02:19:48;5.50;;;1.95;;
70253;SDS011;57649;42.968;1.608;2023-04-24T02:22:14;5.00;;;1.85;;
70253;SDS011;57649;42.968;1.608;2023-04-24T02:24:39;3.38;;;1.50;;
70253;SDS011;57649;42.968;1.608;2023-04-24T02:27:05;3.67;;;2.17;;
70253;SDS011;57649;42.968;1.608;2023-04-24T02:29:31;2.97;;;2.05;;
70253;SDS011;57649;42.968;1.608;2023-04-24T02:31:56;3.95;;;1.83;;
70253;SDS011;57649;42.968;1.608;2023-04-24T02:34:22;2.95;;;1.75;;
70253;SDS011;57649;42.968;1.608;2023-04-24T02:36:48;2.85;;;1.60;;
70253;SDS011;57649;42.968;1.608;2023-04-24T02:39:13;3.05;;;1.83;;
70253;SDS011;57649;42.968;1.608;2023-04-24T02:41:41;3.83;;;1.70;;
70253;SDS011;57649;42.968;1.608;2023-04-24T02:44:07;6.53;;;1.98;;
70253;SDS011;57649;42.968;1.608;2023-04-24T02:46:32;2.42;;;1.50;;
70253;SDS011;57649;42.968;1.608;2023-04-24T02:48:57;3.70;;;1.90;;
70253;SDS011;57649;42.968;1.608;2023-04-24T02:51:23;2.63;;;1.40;;
70253;SDS011;57649;42.968;1.608;2023-04-24T02:53:48;2.78;;;1.70;;
70253;SDS011;57649;42.968;1.608;2023-04-24T02:56:13;2.95;;;1.58;;
70253;SDS011;57649;42.968;1.608;2023-04-24T02:58:39;4.47;;;1.55;;
70253;SDS011;57649;42.968;1.608;2023-04-24T03:01:05;3.83;;;1.80;;
70253;SDS011;57649;42.968;1.608;2023-04-24T03:03:30;3.53;;;1.50;;
70253;SDS011;57649;42.968;1.608;2023-04-24T03:05:56;3.97;;;1.70;;
70253;SDS011;57649;42.968;1.608;2023-04-24T03:08:22;1.98;;;1.70;;
70253;SDS011;57649;42.968;1.608;2023-04-24T03:10:47;4.32;;;1.73;;
70253;SDS011;57649;42.968;1.608;2023-04-24T03:13:13;3.53;;;2.15;;
70253;SDS011;57649;42.968;1.608;2023-04-24T03:15:38;2.65;;;1.77;;
70253;SDS011;57649;42.968;1.608;2023-04-24T03:18:03;5.38;;;2.17;;
70253;SDS011;57649;42.968;1.608;2023-04-24T03:20:29;2.75;;;2.20;;
70253;SDS011;57649;42.968;1.608;2023-04-24T03:22:54;4.68;;;2.35;;
70253;SDS011;57649;42.968;1.608;2023-04-24T03:25:21;3.40;;;2.08;;
70253;SDS011;57649;42.968;1.608;2023-04-24T03:27:46;5.45;;;2.28;;
70253;SDS011;57649;42.968;1.608;2023-04-24T03:30:12;4.63;;;2.10;;
70253;SDS011;57649;42.968;1.608;2023-04-24T03:32:37;3.28;;;2.25;;
70253;SDS011;57649;42.968;1.608;2023-04-24T03:35:04;3.42;;;2.38;;
70253;SDS011;57649;42.968;1.608;2023-04-24T03:37:31;4.75;;;2.35;;
70253;SDS011;57649;42.968;1.608;2023-04-24T03:39:56;3.53;;;2.15;;
70253;SDS011;57649;42.968;1.608;2023-04-24T03:42:22;3.67;;;2.47;;
70253;SDS011;57649;42.968;1.608;2023-04-24T03:44:47;4.50;;;2.40;;
70253;SDS011;57649;42.968;1.608;2023-04-24T03:47:13;3.80;;;2.50;;
70253;SDS011;57649;42.968;1.608;2023-04-24T03:49:38;3.60;;;2.33;;
70253;SDS011;57649;42.968;1.608;2023-04-24T03:52:04;4.55;;;2.60;;
70253;SDS011;57649;42.968;1.608;2023-04-24T03:54:29;4.25;;;2.65;;
70253;SDS011;57649;42.968;1.608;2023-04-24T03:56:54;4.80;;;2.72;;
70253;SDS011;57649;42.968;1.608;2023-04-24T03:59:20;3.80;;;2.50;;
70253;SDS011;57649;42.968;1.608;2023-04-24T04:01:45;2.80;;;2.25;;
70253;SDS011;57649;42.968;1.608;2023-04-24T04:04:11;5.47;;;2.90;;
70253;SDS011;57649;42.968;1.608;2023-04-24T04:06:37;3.10;;;2.40;;
70253;SDS011;57649;42.968;1.608;2023-04-24T04:09:03;4.63;;;2.42;;
70253;SDS011;57649;42.968;1.608;2023-04-24T04:11:28;2.70;;;2.40;;
70253;SDS011;57649;42.968;1.608;2023-04-24T04:13:54;3.17;;;2.47;;
70253;SDS011;57649;42.968;1.608;2023-04-24T04:16:21;3.10;;;2.40;;
70253;SDS011;57649;42.968;1.608;2023-04-24T04:18:47;4.60;;;2.42;;
70253;SDS011;57649;42.968;1.608;2023-04-24T04:21:12;3.80;;;2.50;;
70253;SDS011;57649;42.968;1.608;2023-04-24T04:23:38;5.03;;;2.60;;
70253;SDS011;57649;42.968;1.608;2023-04-24T04:26:04;6.35;;;2.80;;
70253;SDS011;57649;42.968;1.608;2023-04-24T04:28:30;4.43;;;2.20;;
70253;SDS011;57649;42.968;1.608;2023-04-24T04:30:56;3.95;;;2.75;;
70253;SDS011;57649;42.968;1.608;2023-04-24T04:33:23;3.35;;;2.40;;
70253;SDS011;57649;42.968;1.608;2023-04-24T04:35:49;4.53;;;2.53;;
70253;SDS011;57649;42.968;1.608;2023-04-24T04:38:17;4.45;;;2.40;;
70253;SDS011;57649;42.968;1.608;2023-04-24T04:40:43;5.60;;;2.50;;
70253;SDS011;57649;42.968;1.608;2023-04-24T04:43:09;2.75;;;2.38;;
70253;SDS011;57649;42.968;1.608;2023-04-24T04:45:35;5.40;;;2.20;;
70253;SDS011;57649;42.968;1.608;2023-04-24T04:48:02;5.75;;;2.65;;
70253;SDS011;57649;42.968;1.608;2023-04-24T04:50:28;4.07;;;2.30;;
70253;SDS011;57649;42.968;1.608;2023-04-24T04:52:54;5.43;;;2.40;;
70253;SDS011;57649;42.968;1.608;2023-04-24T04:55:19;5.07;;;2.80;;
70253;SDS011;57649;42.968;1.608;2023-04-24T04:57:45;6.68;;;2.40;;
70253;SDS011;57649;42.968;1.608;2023-04-24T05:00:11;4.57;;;2.92;;
70253;SDS011;57649;42.968;1.608;2023-04-24T05:02:37;5.75;;;2.90;;
70253;SDS011;57649;42.968;1.608;2023-04-24T05:05:04;2.63;;;2.33;;
70253;SDS011;57649;42.968;1.608;2023-04-24T05:07:30;4.75;;;2.85;;
70253;SDS011;57649;42.968;1.608;2023-04-24T05:09:56;4.28;;;3.20;;
70253;SDS011;57649;42.968;1.608;2023-04-24T05:12:21;6.45;;;2.80;;
70253;SDS011;57649;42.968;1.608;2023-04-24T05:14:46;3.83;;;2.97;;
70253;SDS011;57649;42.968;1.608;2023-04-24T05:17:12;6.05;;;2.80;;
70253;SDS011;57649;42.968;1.608;2023-04-24T05:19:37;3.92;;;3.17;;
70253;SDS011;57649;42.968;1.608;2023-04-24T05:22:03;4.60;;;2.83;;
70253;SDS011;57649;42.968;1.608;2023-04-24T05:24:31;4.25;;;2.92;;
70253;SDS011;57649;42.968;1.608;2023-04-24T05:27:00;5.68;;;2.65;;
70253;SDS011;57649;42.968;1.608;2023-04-24T05:29:27;5.88;;;3.53;;
70253;SDS011;57649;42.968;1.608;2023-04-24T05:31:52;8.93;;;4.65;;
70253;SDS011;57649;42.968;1.608;2023-04-24T05:34:18;4.88;;;3.55;;
70253;SDS011;57649;42.968;1.608;2023-04-24T05:36:43;5.55;;;3.25;;
70253;SDS011;57649;42.968;1.608;2023-04-24T05:39:09;6.97;;;4.30;;
70253;SDS011;57649;42.968;1.608;2023-04-24T05:41:34;8.25;;;5.82;;
70253;SDS011;57649;42.968;1.608;2023-04-24T05:44:00;5.65;;;4.18;;
70253;SDS011;57649;42.968;1.608;2023-04-24T05:46:25;5.95;;;3.83;;
70253;SDS011;57649;42.968;1.608;2023-04-24T05:48:51;4.40;;;3.42;;
70253;SDS011;57649;42.968;1.608;2023-04-24T05:51:16;6.35;;;4.00;;
70253;SDS011;57649;42.968;1.608;2023-04-24T05:53:41;7.35;;;3.55;;
70253;SDS011;57649;42.968;1.608;2023-04-24T05:56:07;5.40;;;4.40;;
70253;SDS011;57649;42.968;1.608;2023-04-24T05:58:32;5.90;;;3.88;;
70253;SDS011;57649;42.968;1.608;2023-04-24T06:00:58;5.18;;;3.72;;
70253;SDS011;57649;42.968;1.608;2023-04-24T06:03:25;5.82;;;3.97;;
70253;SDS011;57649;42.968;1.608;2023-04-24T06:05:52;5.60;;;3.85;;
70253;SDS011;57649;42.968;1.608;2023-04-24T06:08:17;7.53;;;4.18;;
70253;SDS011;57649;42.968;1.608;2023-04-24T06:10:43;5.35;;;4.13;;
70253;SDS011;57649;42.968;1.608;2023-04-24T06:13:08;5.47;;;4.10;;
70253;SDS011;57649;42.968;1.608;2023-04-24T06:15:33;6.13;;;4.28;;
70253;SDS011;57649;42.968;1.608;2023-04-24T06:17:59;6.57;;;4.35;;
70253;SDS011;57649;42.968;1.608;2023-04-24T06:20:24;7.45;;;3.65;;
70253;SDS011;57649;42.968;1.608;2023-04-24T06:22:50;5.60;;;3.70;;
70253;SDS011;57649;42.968;1.608;2023-04-24T06:25:15;6.35;;;3.50;;
70253;SDS011;57649;42.968;1.608;2023-04-24T06:27:41;4.72;;;3.85;;
70253;SDS011;57649;42.968;1.608;2023-04-24T06:30:07;7.82;;;4.25;;
70253;SDS011;57649;42.968;1.608;2023-04-24T06:32:33;6.57;;;4.07;;
70253;SDS011;57649;42.968;1.608;2023-04-24T06:34:58;6.65;;;3.42;;
70253;SDS011;57649;42.968;1.608;2023-04-24T06:37:23;6.65;;;3.65;;
70253;SDS011;57649;42.968;1.608;2023-04-24T06:39:49;6.20;;;3.42;;
70253;SDS011;57649;42.968;1.608;2023-04-24T06:42:14;7.88;;;3.70;;
70253;SDS011;57649;42.968;1.608;2023-04-24T06:44:40;4.63;;;2.92;;
70253;SDS011;57649;42.968;1.608;2023-04-24T06:47:08;7.25;;;3.47;;
70253;SDS011;57649;42.968;1.608;2023-04-24T06:49:35;6.80;;;3.30;;
70253;SDS011;57649;42.968;1.608;2023-04-24T06:52:00;6.15;;;3.92;;
70253;SDS011;57649;42.968;1.608;2023-04-24T06:54:26;6.50;;;3.88;;
70253;SDS011;57649;42.968;1.608;2023-04-24T06:56:51;3.05;;;2.40;;
70253;SDS011;57649;42.968;1.608;2023-04-24T06:59:17;10.85;;;4.47;;
70253;SDS011;57649;42.968;1.608;2023-04-24T07:01:42;10.50;;;3.50;;
70253;SDS011;57649;42.968;1.608;2023-04-24T07:04:08;5.03;;;3.00;;
70253;SDS011;57649;42.968;1.608;2023-04-24T07:06:33;4.93;;;3.08;;
70253;SDS011;57649;42.968;1.608;2023-04-24T07:09:00;3.85;;;3.38;;
70253;SDS011;57649;42.968;1.608;2023-04-24T07:11:26;3.40;;;2.53;;
70253;SDS011;57649;42.968;1.608;2023-04-24T07:13:54;6.57;;;3.28;;
70253;SDS011;57649;42.968;1.608;2023-04-24T07:16:20;3.47;;;2.13;;
70253;SDS011;57649;42.968;1.608;2023-04-24T07:18:45;5.35;;;2.22;;
70253;SDS011;57649;42.968;1.608;2023-04-24T07:21:10;7.53;;;2.40;;
70253;SDS011;57649;42.968;1.608;2023-04-24T07:23:36;4.47;;;1.48;;
70253;SDS011;57649;42.968;1.608;2023-04-24T07:26:02;4.80;;;1.77;;
70253;SDS011;57649;42.968;1.608;2023-04-24T07:28:27;4.38;;;1.67;;
70253;SDS011;57649;42.968;1.608;2023-04-24T07:30:56;3.17;;;1.50;;
70253;SDS011;57649;42.968;1.608;2023-04-24T07:33:22;3.90;;;1.77;;
70253;SDS011;57649;42.968;1.608;2023-04-24T07:35:47;4.60;;;1.70;;
70253;SDS011;57649;42.968;1.608;2023-04-24T07:38:13;3.72;;;1.10;;
70253;SDS011;57649;42.968;1.608;2023-04-24T07:40:39;2.72;;;1.10;;
70253;SDS011;57649;42.968;1.608;2023-04-24T07:43:04;3.03;;;1.00;;
70253;SDS011;57649;42.968;1.608;2023-04-24T07:45:30;7.53;;;1.40;;
70253;SDS011;57649;42.968;1.608;2023-04-24T07:47:56;2.45;;;1.20;;
70253;SDS011;57649;42.968;1.608;2023-04-24T07:50:21;2.67;;;1.00;;
70253;SDS011;57649;42.968;1.608;2023-04-24T07:52:47;2.85;;;0.90;;
70253;SDS011;57649;42.968;1.608;2023-04-24T07:55:13;4.80;;;0.93;;
70253;SDS011;57649;42.968;1.608;2023-04-24T07:57:38;4.15;;;1.10;;
70253;SDS011;57649;42.968;1.608;2023-04-24T08:00:04;1.40;;;0.68;;
70253;SDS011;57649;42.968;1.608;2023-04-24T08:02:30;1.83;;;0.80;;
70253;SDS011;57649;42.968;1.608;2023-04-24T08:04:56;3.20;;;1.00;;
70253;SDS011;57649;42.968;1.608;2023-04-24T08:07:21;2.17;;;0.90;;
70253;SDS011;57649;42.968;1.608;2023-04-24T08:09:48;2.28;;;1.00;;
70253;SDS011;57649;42.968;1.608;2023-04-24T08:12:14;6.32;;;0.95;;
70253;SDS011;57649;42.968;1.608;2023-04-24T08:14:40;5.78;;;1.10;;
70253;SDS011;57649;42.968;1.608;2023-04-24T08:17:05;1.85;;;0.80;;
70253;SDS011;57649;42.968;1.608;2023-04-24T08:19:31;1.75;;;0.80;;
70253;SDS011;57649;42.968;1.608;2023-04-24T08:21:56;2.58;;;0.70;;
70253;SDS011;57649;42.968;1.608;2023-04-24T08:24:22;5.78;;;0.88;;
70253;SDS011;57649;42.968;1.608;2023-04-24T08:26:47;2.17;;;1.00;;
70253;SDS011;57649;42.968;1.608;2023-04-24T08:29:16;6.38;;;1.05;;
70253;SDS011;57649;42.968;1.608;2023-04-24T08:31:42;3.67;;;0.70;;
70253;SDS011;57649;42.968;1.608;2023-04-24T08:34:07;3.47;;;0.70;;
70253;SDS011;57649;42.968;1.608;2023-04-24T08:36:32;4.82;;;0.55;;
70253;SDS011;57649;42.968;1.608;2023-04-24T08:38:58;3.05;;;0.70;;
70253;SDS011;57649;42.968;1.608;2023-04-24T08:41:24;1.20;;;0.50;;
70253;SDS011;57649;42.968;1.608;2023-04-24T08:43:51;0.88;;;0.50;;
70253;SDS011;57649;42.968;1.608;2023-04-24T08:46:16;4.50;;;1.08;;
70253;SDS011;57649;42.968;1.608;2023-04-24T08:48:44;2.50;;;0.98;;
70253;SDS011;57649;42.968;1.608;2023-04-24T08:51:10;6.43;;;1.02;;
70253;SDS011;57649;42.968;1.608;2023-04-24T08:53:36;3.03;;;0.85;;
70253;SDS011;57649;42.968;1.608;2023-04-24T08:56:02;3.17;;;0.70;;
70253;SDS011;57649;42.968;1.608;2023-04-24T08:58:29;5.63;;;2.13;;
70253;SDS011;57649;42.968;1.608;2023-04-24T09:00:56;3.95;;;1.02;;
70253;SDS011;57649;42.968;1.608;2023-04-24T09:03:22;1.55;;;0.80;;
70253;SDS011;57649;42.968;1.608;2023-04-24T09:05:48;5.22;;;0.95;;
70253;SDS011;57649;42.968;1.608;2023-04-24T09:08:18;1.63;;;0.75;;
70253;SDS011;57649;42.968;1.608;2023-04-24T09:10:44;3.13;;;0.82;;
70253;SDS011;57649;42.968;1.608;2023-04-24T09:13:11;2.10;;;0.82;;
70253;SDS011;57649;42.968;1.608;2023-04-24T09:15:37;3.40;;;0.90;;
70253;SDS011;57649;42.968;1.608;2023-04-24T09:18:03;1.42;;;0.70;;
70253;SDS011;57649;42.968;1.608;2023-04-24T09:20:29;0.90;;;0.50;;
70253;SDS011;57649;42.968;1.608;2023-04-24T09:22:56;2.55;;;0.60;;
70253;SDS011;57649;42.968;1.608;2023-04-24T09:25:22;2.47;;;0.80;;
70253;SDS011;57649;42.968;1.608;2023-04-24T09:27:59;1.48;;;0.47;;
70253;SDS011;57649;42.968;1.608;2023-04-24T09:30:25;2.03;;;0.80;;
70253;SDS011;57649;42.968;1.608;2023-04-24T09:32:58;2.58;;;0.77;;
70253;SDS011;57649;42.968;1.608;2023-04-24T09:35:34;1.05;;;0.50;;
70253;SDS011;57649;42.968;1.608;2023-04-24T09:38:00;1.55;;;0.50;;
70253;SDS011;57649;42.968;1.608;2023-04-24T09:40:25;4.88;;;3.65;;
70253;SDS011;57649;42.968;1.608;2023-04-24T09:42:52;4.38;;;0.80;;
70253;SDS011;57649;42.968;1.608;2023-04-24T09:45:18;2.60;;;0.68;;
70253;SDS011;57649;42.968;1.608;2023-04-24T09:47:45;3.42;;;0.63;;
70253;SDS011;57649;42.968;1.608;2023-04-24T09:50:14;1.17;;;0.50;;
70253;SDS011;57649;42.968;1.608;2023-04-24T09:52:45;2.88;;;0.80;;
70253;SDS011;57649;42.968;1.608;2023-04-24T09:55:20;1.57;;;0.63;;
70253;SDS011;57649;42.968;1.608;2023-04-24T09:57:53;5.60;;;0.88;;
70253;SDS011;57649;42.968;1.608;2023-04-24T10:00:23;1.25;;;0.70;;
70253;SDS011;57649;42.968;1.608;2023-04-24T10:03:02;2.10;;;0.60;;
70253;SDS011;57649;42.968;1.608;2023-04-24T10:05:29;4.40;;;0.88;;
70253;SDS011;57649;42.968;1.608;2023-04-24T10:08:05;1.67;;;0.57;;
70253;SDS011;57649;42.968;1.608;2023-04-24T10:10:33;1.95;;;0.65;;
70253;SDS011;57649;42.968;1.608;2023-04-24T10:13:03;3.08;;;0.70;;
70253;SDS011;57649;42.968;1.608;2023-04-24T10:15:29;2.05;;;0.73;;
70253;SDS011;57649;42.968;1.608;2023-04-24T10:17:55;2.13;;;0.70;;
70253;SDS011;57649;42.968;1.608;2023-04-24T10:20:25;1.80;;;0.60;;
70253;SDS011;57649;42.968;1.608;2023-04-24T10:22:53;2.83;;;0.60;;
70253;SDS011;57649;42.968;1.608;2023-04-24T10:25:23;2.33;;;0.80;;
70253;SDS011;57649;42.968;1.608;2023-04-24T10:27:50;1.90;;;0.52;;
70253;SDS011;57649;42.968;1.608;2023-04-24T10:30:16;2.83;;;0.70;;
70253;SDS011;57649;42.968;1.608;2023-04-24T10:32:43;3.22;;;0.60;;
70253;SDS011;57649;42.968;1.608;2023-04-24T10:35:09;3.35;;;1.00;;
70253;SDS011;57649;42.968;1.608;2023-04-24T10:37:37;1.48;;;0.70;;
70253;SDS011;57649;42.968;1.608;2023-04-24T10:40:05;3.03;;;0.95;;
70253;SDS011;57649;42.968;1.608;2023-04-24T10:42:33;1.88;;;0.60;;
70253;SDS011;57649;42.968;1.608;2023-04-24T10:44:59;2.28;;;0.70;;
70253;SDS011;57649;42.968;1.608;2023-04-24T10:47:29;2.35;;;0.60;;
70253;SDS011;57649;42.968;1.608;2023-04-24T10:49:55;0.88;;;0.50;;
70253;SDS011;57649;42.968;1.608;2023-04-24T10:52:26;2.22;;;0.60;;
70253;SDS011;57649;42.968;1.608;2023-04-24T10:55:09;5.32;;;0.80;;
70253;SDS011;57649;42.968;1.608;2023-04-24T10:57:34;5.22;;;0.80;;
70253;SDS011;57649;42.968;1.608;2023-04-24T11:00:10;7.75;;;1.13;;
70253;SDS011;57649;42.968;1.608;2023-04-24T11:02:38;2.25;;;0.98;;
70253;SDS011;57649;42.968;1.608;2023-04-24T11:05:05;5.18;;;1.00;;
70253;SDS011;57649;42.968;1.608;2023-04-24T11:08:09;2.30;;;0.88;;
70253;SDS011;57649;42.968;1.608;2023-04-24T11:10:38;3.45;;;0.90;;
70253;SDS011;57649;42.968;1.608;2023-04-24T11:13:05;3.30;;;1.15;;
70253;SDS011;57649;42.968;1.608;2023-04-24T11:15:30;3.67;;;0.90;;
70253;SDS011;57649;42.968;1.608;2023-04-24T11:17:55;3.38;;;0.90;;
70253;SDS011;57649;42.968;1.608;2023-04-24T11:20:22;4.47;;;1.10;;
70253;SDS011;57649;42.968;1.608;2023-04-24T11:22:48;2.30;;;0.90;;
70253;SDS011;57649;42.968;1.608;2023-04-24T11:25:19;4.82;;;1.67;;
70253;SDS011;57649;42.968;1.608;2023-04-24T11:27:47;2.53;;;0.73;;
70253;SDS011;57649;42.968;1.608;2023-04-24T11:30:17;3.00;;;0.80;;
70253;SDS011;57649;42.968;1.608;2023-04-24T11:32:43;2.47;;;0.90;;
70253;SDS011;57649;42.968;1.608;2023-04-24T11:37:47;8.05;;;1.13;;
70253;SDS011;57649;42.968;1.608;2023-04-24T11:40:17;2.45;;;0.70;;
70253;SDS011;57649;42.968;1.608;2023-04-24T11:42:49;4.32;;;1.02;;
70253;SDS011;57649;42.968;1.608;2023-04-24T11:45:25;2.35;;;0.90;;
70253;SDS011;57649;42.968;1.608;2023-04-24T11:47:52;1.75;;;0.75;;
70253;SDS011;57649;42.968;1.608;2023-04-24T11:50:18;3.10;;;0.82;;
70253;SDS011;57649;42.968;1.608;2023-04-24T11:52:47;2.50;;;0.80;;
70253;SDS011;57649;42.968;1.608;2023-04-24T11:57:39;1.70;;;0.85;;
70253;SDS011;57649;42.968;1.608;2023-04-24T12:00:14;3.67;;;1.50;;
70253;SDS011;57649;42.968;1.608;2023-04-24T12:02:44;3.03;;;0.90;;
70253;SDS011;57649;42.968;1.608;2023-04-24T12:05:18;3.65;;;1.05;;
70253;SDS011;57649;42.968;1.608;2023-04-24T12:07:48;4.57;;;0.70;;
70253;SDS011;57649;42.968;1.608;2023-04-24T12:10:14;3.33;;;1.00;;
70253;SDS011;57649;42.968;1.608;2023-04-24T12:12:45;3.25;;;0.82;;
70253;SDS011;57649;42.968;1.608;2023-04-24T12:15:11;4.10;;;1.10;;
70253;SDS011;57649;42.968;1.608;2023-04-24T12:17:40;3.50;;;0.85;;
70253;SDS011;57649;42.968;1.608;2023-04-24T12:20:07;8.55;;;1.23;;
70253;SDS011;57649;42.968;1.608;2023-04-24T12:23:16;4.70;;;1.40;;
70253;SDS011;57649;42.968;1.608;2023-04-24T12:25:24;4.18;;;1.00;;
70253;SDS011;57649;42.968;1.608;2023-04-24T12:27:55;3.05;;;0.85;;
70253;SDS011;57649;42.968;1.608;2023-04-24T12:30:41;1.73;;;0.85;;
70253;SDS011;57649;42.968;1.608;2023-04-24T12:33:09;3.67;;;1.02;;
70253;SDS011;57649;42.968;1.608;2023-04-24T12:35:34;3.90;;;1.30;;
70253;SDS011;57649;42.968;1.608;2023-04-24T12:38:11;1.88;;;0.80;;
70253;SDS011;57649;42.968;1.608;2023-04-24T12:40:38;3.17;;;1.10;;
70253;SDS011;57649;42.968;1.608;2023-04-24T12:43:14;1.73;;;0.90;;
70253;SDS011;57649;42.968;1.608;2023-04-24T12:45:41;5.03;;;0.90;;
70253;SDS011;57649;42.968;1.608;2023-04-24T12:48:06;3.10;;;1.00;;
70253;SDS011;57649;42.968;1.608;2023-04-24T12:50:31;3.03;;;1.00;;
70253;SDS011;57649;42.968;1.608;2023-04-24T12:52:57;4.22;;;0.90;;
70253;SDS011;57649;42.968;1.608;2023-04-24T12:55:22;2.10;;;0.80;;
70253;SDS011;57649;42.968;1.608;2023-04-24T12:57:48;2.95;;;1.05;;
70253;SDS011;57649;42.968;1.608;2023-04-24T13:00:13;2.80;;;1.00;;
70253;SDS011;57649;42.968;1.608;2023-04-24T13:02:39;2.85;;;0.98;;
70253;SDS011;57649;42.968;1.608;2023-04-24T13:05:05;3.97;;;0.88;;
70253;SDS011;57649;42.968;1.608;2023-04-24T13:07:31;4.00;;;1.00;;
70253;SDS011;57649;42.968;1.608;2023-04-24T13:09:56;5.95;;;5.22;;
70253;SDS011;57649;42.968;1.608;2023-04-24T13:12:25;2.72;;;0.90;;
70253;SDS011;57649;42.968;1.608;2023-04-24T13:14:51;5.10;;;0.93;;
70253;SDS011;57649;42.968;1.608;2023-04-24T13:17:16;3.08;;;1.20;;
70253;SDS011;57649;42.968;1.608;2023-04-24T13:19:42;2.72;;;0.90;;
70253;SDS011;57649;42.968;1.608;2023-04-24T13:22:09;3.22;;;0.70;;
70253;SDS011;57649;42.968;1.608;2023-04-24T13:24:36;2.92;;;0.90;;
70253;SDS011;57649;42.968;1.608;2023-04-24T13:27:03;6.80;;;1.63;;
70253;SDS011;57649;42.968;1.608;2023-04-24T13:29:29;2.35;;;0.90;;
70253;SDS011;57649;42.968;1.608;2023-04-24T13:31:54;2.50;;;1.20;;
70253;SDS011;57649;42.968;1.608;2023-04-24T13:34:21;3.55;;;0.85;;
70253;SDS011;57649;42.968;1.608;2023-04-24T13:36:47;2.28;;;0.70;;
70253;SDS011;57649;42.968;1.608;2023-04-24T13:39:12;2.83;;;0.75;;
70253;SDS011;57649;42.968;1.608;2023-04-24T13:41:38;2.78;;;0.70;;
70253;SDS011;57649;42.968;1.608;2023-04-24T13:44:04;2.53;;;0.55;;
70253;SDS011;57649;42.968;1.608;2023-04-24T13:46:30;2.38;;;1.00;;
70253;SDS011;57649;42.968;1.608;2023-04-24T13:48:56;4.95;;;1.50;;
70253;SDS011;57649;42.968;1.608;2023-04-24T13:51:22;2.35;;;0.68;;
70253;SDS011;57649;42.968;1.608;2023-04-24T14:14:02;3.22;;;0.85;;
70253;SDS011;57649;42.968;1.608;2023-04-24T14:16:28;2.10;;;0.80;;
70253;SDS011;57649;42.968;1.608;2023-04-24T14:18:53;2.47;;;0.80;;
70253;SDS011;57649;42.968;1.608;2023-04-24T14:21:19;3.47;;;0.80;;
70253;SDS011;57649;42.968;1.608;2023-04-24T14:23:45;1.77;;;0.63;;
70253;SDS011;57649;42.968;1.608;2023-04-24T14:26:10;1.67;;;0.85;;
70253;SDS011;57649;42.968;1.608;2023-04-24T14:28:36;1.77;;;0.93;;
70253;SDS011;57649;42.968;1.608;2023-04-24T14:31:01;4.47;;;1.33;;
70253;SDS011;57649;42.968;1.608;2023-04-24T14:33:27;6.55;;;0.88;;
70253;SDS011;57649;42.968;1.608;2023-04-24T14:35:52;2.30;;;0.93;;
70253;SDS011;57649;42.968;1.608;2023-04-24T14:38:17;1.65;;;0.80;;
70253;SDS011;57649;42.968;1.608;2023-04-24T14:40:43;3.40;;;1.40;;
70253;SDS011;57649;42.968;1.608;2023-04-24T14:43:08;2.25;;;0.90;;
70253;SDS011;57649;42.968;1.608;2023-04-24T14:45:33;2.92;;;1.00;;
70253;SDS011;57649;42.968;1.608;2023-04-24T14:47:59;2.30;;;0.90;;
70253;SDS011;57649;42.968;1.608;2023-04-24T14:50:25;2.05;;;0.82;;
70253;SDS011;57649;42.968;1.608;2023-04-24T14:52:53;3.05;;;1.08;;
70253;SDS011;57649;42.968;1.608;2023-04-24T14:55:22;2.83;;;0.90;;
70253;SDS011;57649;42.968;1.608;2023-04-24T14:57:47;3.13;;;0.98;;
70253;SDS011;57649;42.968;1.608;2023-04-24T15:00:13;2.38;;;0.82;;
70253;SDS011;57649;42.968;1.608;2023-04-24T15:02:39;2.15;;;1.20;;
70253;SDS011;57649;42.968;1.608;2023-04-24T15:05:06;1.58;;;0.85;;
70253;SDS011;57649;42.968;1.608;2023-04-24T15:07:33;1.60;;;0.75;;
70253;SDS011;57649;42.968;1.608;2023-04-24T15:10:00;2.70;;;1.02;;